sensor_id;sensor_type;location;lat;lon;timestamp;temperature;humidity
52034;DHT22;38045;52.988;6.536;2022-08-01T00:00:17;18.20;99.90
52034;DHT22;38045;52.988;6.536;2022-08-01T00:02:43;18.10;99.90
52034;DHT22;38045;52.988;6.536;2022-08-01T00:05:09;18.20;99.90
52034;DHT22;38045;52.988;6.536;2022-08-01T00:07:36;18.10;99.90
52034;DHT22;38045;52.988;6.536;2022-08-01T00:10:03;18.20;99.90
52034;DHT22;38045;52.988;6.536;2022-08-01T00:12:29;18.10;99.90
52034;DHT22;38045;52.988;6.536;2022-08-01T00:14:54;18.10;99.90
52034;DHT22;38045;52.988;6.536;2022-08-01T00:17:20;18.10;99.90
52034;DHT22;38045;52.988;6.536;2022-08-01T00:19:45;18.10;99.90
52034;DHT22;38045;52.988;6.536;2022-08-01T00:22:11;18.10;99.90
52034;DHT22;38045;52.988;6.536;2022-08-01T00:24:36;18.10;99.90
52034;DHT22;38045;52.988;6.536;2022-08-01T00:27:02;18.10;99.90
52034;DHT22;38045;52.988;6.536;2022-08-01T00:29:28;18.10;99.90
52034;DHT22;38045;52.988;6.536;2022-08-01T00:31:53;18.10;99.90
52034;DHT22;38045;52.988;6.536;2022-08-01T00:34:19;18.10;99.90
52034;DHT22;38045;52.988;6.536;2022-08-01T00:36:44;18.10;99.90
52034;DHT22;38045;52.988;6.536;2022-08-01T00:39:10;18.10;99.90
52034;DHT22;38045;52.988;6.536;2022-08-01T00:41:35;18.00;99.90
52034;DHT22;38045;52.988;6.536;2022-08-01T00:44:05;18.00;99.90
52034;DHT22;38045;52.988;6.536;2022-08-01T00:46:32;18.00;99.90
52034;DHT22;38045;52.988;6.536;2022-08-01T00:48:59;18.00;99.90
52034;DHT22;38045;52.988;6.536;2022-08-01T00:51:26;18.00;99.90
52034;DHT22;38045;52.988;6.536;2022-08-01T00:53:52;18.00;99.90
52034;DHT22;38045;52.988;6.536;2022-08-01T00:56:20;18.00;99.90
52034;DHT22;38045;52.988;6.536;2022-08-01T00:58:45;17.90;99.90
52034;DHT22;38045;52.988;6.536;2022-08-01T01:01:11;18.00;99.90
52034;DHT22;38045;52.988;6.536;2022-08-01T01:03:36;18.00;99.90
52034;DHT22;38045;52.988;6.536;2022-08-01T01:09:02;18.00;99.90
52034;DHT22;38045;52.988;6.536;2022-08-01T01:11:40;18.00;99.90
52034;DHT22;38045;52.988;6.536;2022-08-01T01:14:16;18.00;99.90
52034;DHT22;38045;52.988;6.536;2022-08-01T01:16:45;18.00;99.90
52034;DHT22;38045;52.988;6.536;2022-08-01T01:19:16;18.00;99.90
52034;DHT22;38045;52.988;6.536;2022-08-01T01:22:17;18.00;99.90
52034;DHT22;38045;52.988;6.536;2022-08-01T01:24:58;18.00;99.90
52034;DHT22;38045;52.988;6.536;2022-08-01T01:30:04;18.00;99.90
52034;DHT22;38045;52.988;6.536;2022-08-01T01:32:38;17.90;99.90
52034;DHT22;38045;52.988;6.536;2022-08-01T01:35:22;17.90;99.90
52034;DHT22;38045;52.988;6.536;2022-08-01T01:37:53;17.90;99.90
52034;DHT22;38045;52.988;6.536;2022-08-01T01:40:20;17.90;99.90
52034;DHT22;38045;52.988;6.536;2022-08-01T01:42:46;17.90;99.90
52034;DHT22;38045;52.988;6.536;2022-08-01T01:45:13;17.80;99.90
52034;DHT22;38045;52.988;6.536;2022-08-01T01:47:39;17.80;99.90
52034;DHT22;38045;52.988;6.536;2022-08-01T01:50:08;17.80;99.90
52034;DHT22;38045;52.988;6.536;2022-08-01T01:52:35;17.80;99.90
52034;DHT22;38045;52.988;6.536;2022-08-01T01:55:05;17.80;99.90
52034;DHT22;38045;52.988;6.536;2022-08-01T01:57:32;17.70;99.90
52034;DHT22;38045;52.988;6.536;2022-08-01T02:00:01;17.70;99.90
52034;DHT22;38045;52.988;6.536;2022-08-01T02:02:28;17.80;99.90
52034;DHT22;38045;52.988;6.536;2022-08-01T02:04:54;17.70;99.90
52034;DHT22;38045;52.988;6.536;2022-08-01T02:07:25;17.70;99.90
52034;DHT22;38045;52.988;6.536;2022-08-01T02:09:51;17.80;99.90
52034;DHT22;38045;52.988;6.536;2022-08-01T02:12:19;17.80;99.90
52034;DHT22;38045;52.988;6.536;2022-08-01T02:14:47;17.80;99.90
52034;DHT22;38045;52.988;6.536;2022-08-01T02:17:17;17.80;99.90
52034;DHT22;38045;52.988;6.536;2022-08-01T02:19:44;17.80;99.90
52034;DHT22;38045;52.988;6.536;2022-08-01T02:22:12;17.80;99.90
52034;DHT22;38045;52.988;6.536;2022-08-01T02:24:48;17.80;99.90
52034;DHT22;38045;52.988;6.536;2022-08-01T02:27:19;17.80;99.90
52034;DHT22;38045;52.988;6.536;2022-08-01T02:29:53;17.70;99.90
52034;DHT22;38045;52.988;6.536;2022-08-01T02:32:30;17.70;99.90
52034;DHT22;38045;52.988;6.536;2022-08-01T02:34:57;17.60;99.90
52034;DHT22;38045;52.988;6.536;2022-08-01T02:37:26;17.60;99.90
52034;DHT22;38045;52.988;6.536;2022-08-01T02:39:54;17.60;99.90
52034;DHT22;38045;52.988;6.536;2022-08-01T02:42:20;17.50;99.90
52034;DHT22;38045;52.988;6.536;2022-08-01T02:44:48;17.50;99.90
52034;DHT22;38045;52.988;6.536;2022-08-01T02:47:15;17.40;99.90
52034;DHT22;38045;52.988;6.536;2022-08-01T02:49:45;17.40;99.90
52034;DHT22;38045;52.988;6.536;2022-08-01T02:52:13;17.40;99.90
52034;DHT22;38045;52.988;6.536;2022-08-01T02:54:41;17.40;99.90
52034;DHT22;38045;52.988;6.536;2022-08-01T02:57:09;17.40;99.90
52034;DHT22;38045;52.988;6.536;2022-08-01T02:59:37;17.30;99.90
52034;DHT22;38045;52.988;6.536;2022-08-01T03:02:04;17.40;99.90
52034;DHT22;38045;52.988;6.536;2022-08-01T03:04:32;17.30;99.90
52034;DHT22;38045;52.988;6.536;2022-08-01T03:07:00;17.30;99.90
52034;DHT22;38045;52.988;6.536;2022-08-01T03:09:27;17.30;99.90
52034;DHT22;38045;52.988;6.536;2022-08-01T03:11:57;17.30;99.90
52034;DHT22;38045;52.988;6.536;2022-08-01T03:14:25;17.30;99.90
52034;DHT22;38045;52.988;6.536;2022-08-01T03:16:53;17.30;99.90
52034;DHT22;38045;52.988;6.536;2022-08-01T03:19:23;17.20;99.90
52034;DHT22;38045;52.988;6.536;2022-08-01T03:21:50;17.30;99.90
52034;DHT22;38045;52.988;6.536;2022-08-01T03:24:16;17.30;99.90
52034;DHT22;38045;52.988;6.536;2022-08-01T03:26:44;17.20;99.90
52034;DHT22;38045;52.988;6.536;2022-08-01T03:29:16;17.20;99.90
52034;DHT22;38045;52.988;6.536;2022-08-01T03:31:44;17.20;99.90
52034;DHT22;38045;52.988;6.536;2022-08-01T03:34:11;17.20;99.90
52034;DHT22;38045;52.988;6.536;2022-08-01T03:36:48;17.20;99.90
52034;DHT22;38045;52.988;6.536;2022-08-01T03:39:16;17.10;99.90
52034;DHT22;38045;52.988;6.536;2022-08-01T03:41:48;17.10;99.90
52034;DHT22;38045;52.988;6.536;2022-08-01T03:44:20;17.10;99.90
52034;DHT22;38045;52.988;6.536;2022-08-01T03:46:52;17.00;99.90
52034;DHT22;38045;52.988;6.536;2022-08-01T03:49:24;17.10;99.90
52034;DHT22;38045;52.988;6.536;2022-08-01T03:51:52;17.10;99.90
52034;DHT22;38045;52.988;6.536;2022-08-01T03:54:24;17.10;99.90
52034;DHT22;38045;52.988;6.536;2022-08-01T03:56:51;17.10;99.90
52034;DHT22;38045;52.988;6.536;2022-08-01T03:59:18;17.10;99.90
52034;DHT22;38045;52.988;6.536;2022-08-01T04:01:45;17.10;99.90
52034;DHT22;38045;52.988;6.536;2022-08-01T04:04:12;17.10;99.90
52034;DHT22;38045;52.988;6.536;2022-08-01T04:06:41;17.00;99.90
52034;DHT22;38045;52.988;6.536;2022-08-01T04:09:10;17.00;99.90
52034;DHT22;38045;52.988;6.536;2022-08-01T04:11:36;17.00;99.90
52034;DHT22;38045;52.988;6.536;2022-08-01T04:14:01;17.00;99.90
52034;DHT22;38045;52.988;6.536;2022-08-01T04:16:27;17.00;99.90
52034;DHT22;38045;52.988;6.536;2022-08-01T04:18:52;17.00;99.90
52034;DHT22;38045;52.988;6.536;2022-08-01T04:21:22;17.00;99.90
52034;DHT22;38045;52.988;6.536;2022-08-01T04:23:49;17.00;99.90
52034;DHT22;38045;52.988;6.536;2022-08-01T04:26:17;17.00;99.90
52034;DHT22;38045;52.988;6.536;2022-08-01T04:28:44;17.00;99.90
52034;DHT22;38045;52.988;6.536;2022-08-01T04:31:10;16.90;99.90
52034;DHT22;38045;52.988;6.536;2022-08-01T04:33:40;17.00;99.90
52034;DHT22;38045;52.988;6.536;2022-08-01T04:36:10;16.90;99.90
52034;DHT22;38045;52.988;6.536;2022-08-01T04:38:37;16.90;99.90
52034;DHT22;38045;52.988;6.536;2022-08-01T04:41:03;16.90;99.90
52034;DHT22;38045;52.988;6.536;2022-08-01T04:43:31;17.00;99.90
52034;DHT22;38045;52.988;6.536;2022-08-01T04:45:58;16.90;99.90
52034;DHT22;38045;52.988;6.536;2022-08-01T04:48:24;16.90;99.90
52034;DHT22;38045;52.988;6.536;2022-08-01T04:50:51;16.90;99.90
52034;DHT22;38045;52.988;6.536;2022-08-01T04:53:18;17.00;99.90
52034;DHT22;38045;52.988;6.536;2022-08-01T04:55:45;16.90;99.90
52034;DHT22;38045;52.988;6.536;2022-08-01T04:58:11;16.90;99.90
52034;DHT22;38045;52.988;6.536;2022-08-01T05:00:37;17.00;99.90
52034;DHT22;38045;52.988;6.536;2022-08-01T05:03:03;16.90;99.90
52034;DHT22;38045;52.988;6.536;2022-08-01T05:05:29;16.90;99.90
52034;DHT22;38045;52.988;6.536;2022-08-01T05:07:56;16.90;99.90
52034;DHT22;38045;52.988;6.536;2022-08-01T05:10:21;16.90;99.90
52034;DHT22;38045;52.988;6.536;2022-08-01T05:12:47;16.90;99.90
52034;DHT22;38045;52.988;6.536;2022-08-01T05:15:13;16.90;99.90
52034;DHT22;38045;52.988;6.536;2022-08-01T05:17:38;16.90;99.90
52034;DHT22;38045;52.988;6.536;2022-08-01T05:20:04;16.90;99.90
52034;DHT22;38045;52.988;6.536;2022-08-01T05:22:31;16.90;99.90
52034;DHT22;38045;52.988;6.536;2022-08-01T05:24:57;16.90;99.90
52034;DHT22;38045;52.988;6.536;2022-08-01T05:27:25;16.90;99.90
52034;DHT22;38045;52.988;6.536;2022-08-01T05:29:51;16.80;99.90
52034;DHT22;38045;52.988;6.536;2022-08-01T05:32:17;16.80;99.90
52034;DHT22;38045;52.988;6.536;2022-08-01T05:34:42;16.80;99.90
52034;DHT22;38045;52.988;6.536;2022-08-01T05:37:08;16.90;99.90
52034;DHT22;38045;52.988;6.536;2022-08-01T05:39:34;16.80;99.90
52034;DHT22;38045;52.988;6.536;2022-08-01T05:41:59;16.90;99.90
52034;DHT22;38045;52.988;6.536;2022-08-01T05:44:25;16.90;99.90
52034;DHT22;38045;52.988;6.536;2022-08-01T05:46:51;16.80;99.90
52034;DHT22;38045;52.988;6.536;2022-08-01T05:49:16;16.90;99.90
52034;DHT22;38045;52.988;6.536;2022-08-01T05:51:42;16.90;99.90
52034;DHT22;38045;52.988;6.536;2022-08-01T05:54:08;16.90;99.90
52034;DHT22;38045;52.988;6.536;2022-08-01T05:56:34;17.00;99.90
52034;DHT22;38045;52.988;6.536;2022-08-01T05:58:59;16.90;99.90
52034;DHT22;38045;52.988;6.536;2022-08-01T06:01:25;16.90;99.90
52034;DHT22;38045;52.988;6.536;2022-08-01T06:03:51;16.80;99.90
52034;DHT22;38045;52.988;6.536;2022-08-01T06:06:17;16.80;99.90
52034;DHT22;38045;52.988;6.536;2022-08-01T06:08:43;16.80;99.90
52034;DHT22;38045;52.988;6.536;2022-08-01T06:11:08;16.70;99.90
52034;DHT22;38045;52.988;6.536;2022-08-01T06:13:34;16.70;99.90
52034;DHT22;38045;52.988;6.536;2022-08-01T06:15:59;16.70;99.90
52034;DHT22;38045;52.988;6.536;2022-08-01T06:18:25;16.70;99.90
52034;DHT22;38045;52.988;6.536;2022-08-01T06:20:51;16.70;99.90
52034;DHT22;38045;52.988;6.536;2022-08-01T06:23:17;16.70;99.90
52034;DHT22;38045;52.988;6.536;2022-08-01T06:25:43;16.70;99.90
52034;DHT22;38045;52.988;6.536;2022-08-01T06:28:08;16.60;99.90
52034;DHT22;38045;52.988;6.536;2022-08-01T06:30:34;16.70;99.90
52034;DHT22;38045;52.988;6.536;2022-08-01T06:33:00;16.70;99.90
52034;DHT22;38045;52.988;6.536;2022-08-01T06:35:26;16.50;99.90
52034;DHT22;38045;52.988;6.536;2022-08-01T06:37:52;16.60;99.90
52034;DHT22;38045;52.988;6.536;2022-08-01T06:40:18;16.60;99.90
52034;DHT22;38045;52.988;6.536;2022-08-01T06:42:44;16.60;99.90
52034;DHT22;38045;52.988;6.536;2022-08-01T06:45:12;16.60;99.90
52034;DHT22;38045;52.988;6.536;2022-08-01T06:47:38;16.60;99.90
52034;DHT22;38045;52.988;6.536;2022-08-01T06:50:05;16.60;99.90
52034;DHT22;38045;52.988;6.536;2022-08-01T06:52:31;16.70;99.90
52034;DHT22;38045;52.988;6.536;2022-08-01T06:54:57;16.70;99.90
52034;DHT22;38045;52.988;6.536;2022-08-01T06:57:23;16.70;99.90
52034;DHT22;38045;52.988;6.536;2022-08-01T06:59:49;16.70;99.90
52034;DHT22;38045;52.988;6.536;2022-08-01T07:02:14;16.70;99.90
52034;DHT22;38045;52.988;6.536;2022-08-01T07:04:40;16.70;99.90
52034;DHT22;38045;52.988;6.536;2022-08-01T07:07:06;16.70;99.90
52034;DHT22;38045;52.988;6.536;2022-08-01T07:09:31;16.80;99.90
52034;DHT22;38045;52.988;6.536;2022-08-01T07:11:57;16.80;99.90
52034;DHT22;38045;52.988;6.536;2022-08-01T07:14:23;16.80;99.90
52034;DHT22;38045;52.988;6.536;2022-08-01T07:16:49;16.80;99.90
52034;DHT22;38045;52.988;6.536;2022-08-01T07:19:14;16.80;99.90
52034;DHT22;38045;52.988;6.536;2022-08-01T07:21:40;16.80;99.90
52034;DHT22;38045;52.988;6.536;2022-08-01T07:24:07;16.90;99.90
52034;DHT22;38045;52.988;6.536;2022-08-01T07:26:33;16.90;99.90
52034;DHT22;38045;52.988;6.536;2022-08-01T07:28:59;16.90;99.90
52034;DHT22;38045;52.988;6.536;2022-08-01T07:31:25;17.00;99.90
52034;DHT22;38045;52.988;6.536;2022-08-01T07:33:50;17.00;99.90
52034;DHT22;38045;52.988;6.536;2022-08-01T07:36:17;17.10;99.90
52034;DHT22;38045;52.988;6.536;2022-08-01T07:38:43;17.10;99.90
52034;DHT22;38045;52.988;6.536;2022-08-01T07:41:08;17.10;99.90
52034;DHT22;38045;52.988;6.536;2022-08-01T07:43:34;17.00;99.90
52034;DHT22;38045;52.988;6.536;2022-08-01T07:46:04;17.00;99.90
52034;DHT22;38045;52.988;6.536;2022-08-01T07:48:30;17.00;99.90
52034;DHT22;38045;52.988;6.536;2022-08-01T07:50:56;17.10;99.90
52034;DHT22;38045;52.988;6.536;2022-08-01T07:53:21;17.20;99.90
52034;DHT22;38045;52.988;6.536;2022-08-01T07:55:47;17.20;99.90
52034;DHT22;38045;52.988;6.536;2022-08-01T07:58:13;17.30;99.90
52034;DHT22;38045;52.988;6.536;2022-08-01T08:00:39;17.40;99.90
52034;DHT22;38045;52.988;6.536;2022-08-01T08:03:05;17.40;99.90
52034;DHT22;38045;52.988;6.536;2022-08-01T08:05:31;17.50;99.90
52034;DHT22;38045;52.988;6.536;2022-08-01T08:08:09;17.50;99.90
52034;DHT22;38045;52.988;6.536;2022-08-01T08:10:36;17.50;99.90
52034;DHT22;38045;52.988;6.536;2022-08-01T08:13:02;17.50;99.90
52034;DHT22;38045;52.988;6.536;2022-08-01T08:15:28;17.60;99.90
52034;DHT22;38045;52.988;6.536;2022-08-01T08:17:54;17.70;99.90
52034;DHT22;38045;52.988;6.536;2022-08-01T08:20:20;17.70;99.90
52034;DHT22;38045;52.988;6.536;2022-08-01T08:22:50;17.90;99.90
52034;DHT22;38045;52.988;6.536;2022-08-01T08:25:16;18.10;99.90
52034;DHT22;38045;52.988;6.536;2022-08-01T08:27:42;18.20;99.90
52034;DHT22;38045;52.988;6.536;2022-08-01T08:30:07;18.20;99.90
52034;DHT22;38045;52.988;6.536;2022-08-01T08:32:35;18.20;99.90
52034;DHT22;38045;52.988;6.536;2022-08-01T08:35:01;18.30;99.90
52034;DHT22;38045;52.988;6.536;2022-08-01T08:37:26;18.40;99.90
52034;DHT22;38045;52.988;6.536;2022-08-01T08:39:52;18.50;99.90
52034;DHT22;38045;52.988;6.536;2022-08-01T08:42:18;18.60;99.90
52034;DHT22;38045;52.988;6.536;2022-08-01T08:44:44;18.70;99.90
52034;DHT22;38045;52.988;6.536;2022-08-01T08:47:14;18.90;99.90
52034;DHT22;38045;52.988;6.536;2022-08-01T08:49:42;18.90;99.90
52034;DHT22;38045;52.988;6.536;2022-08-01T08:52:09;18.90;99.90
52034;DHT22;38045;52.988;6.536;2022-08-01T08:54:37;19.00;99.90
52034;DHT22;38045;52.988;6.536;2022-08-01T08:57:03;19.10;99.90
52034;DHT22;38045;52.988;6.536;2022-08-01T08:59:29;19.10;99.90
52034;DHT22;38045;52.988;6.536;2022-08-01T09:01:56;19.00;99.90
52034;DHT22;38045;52.988;6.536;2022-08-01T09:04:21;19.10;99.90
52034;DHT22;38045;52.988;6.536;2022-08-01T09:06:50;19.10;99.90
52034;DHT22;38045;52.988;6.536;2022-08-01T09:09:16;19.10;99.90
52034;DHT22;38045;52.988;6.536;2022-08-01T09:11:42;19.00;99.90
52034;DHT22;38045;52.988;6.536;2022-08-01T09:14:09;19.20;99.90
52034;DHT22;38045;52.988;6.536;2022-08-01T09:16:39;19.40;99.90
52034;DHT22;38045;52.988;6.536;2022-08-01T09:19:16;19.40;99.90
52034;DHT22;38045;52.988;6.536;2022-08-01T09:21:59;19.60;99.90
52034;DHT22;38045;52.988;6.536;2022-08-01T09:24:26;19.70;99.90
52034;DHT22;38045;52.988;6.536;2022-08-01T09:26:54;19.60;99.90
52034;DHT22;38045;52.988;6.536;2022-08-01T09:29:24;19.60;99.90
52034;DHT22;38045;52.988;6.536;2022-08-01T09:31:50;19.50;99.90
52034;DHT22;38045;52.988;6.536;2022-08-01T09:34:23;19.50;99.90
52034;DHT22;38045;52.988;6.536;2022-08-01T09:36:57;19.50;99.90
52034;DHT22;38045;52.988;6.536;2022-08-01T09:39:34;19.50;99.90
52034;DHT22;38045;52.988;6.536;2022-08-01T09:42:24;19.50;99.90
52034;DHT22;38045;52.988;6.536;2022-08-01T09:44:49;19.50;99.90
52034;DHT22;38045;52.988;6.536;2022-08-01T09:47:15;19.50;99.90
52034;DHT22;38045;52.988;6.536;2022-08-01T09:49:42;19.40;99.90
52034;DHT22;38045;52.988;6.536;2022-08-01T09:52:17;19.40;99.90
52034;DHT22;38045;52.988;6.536;2022-08-01T09:54:50;19.50;99.90
52034;DHT22;38045;52.988;6.536;2022-08-01T09:57:18;19.50;99.90
52034;DHT22;38045;52.988;6.536;2022-08-01T09:59:46;19.60;99.90
52034;DHT22;38045;52.988;6.536;2022-08-01T10:02:14;19.70;99.90
52034;DHT22;38045;52.988;6.536;2022-08-01T10:04:51;19.70;99.90
52034;DHT22;38045;52.988;6.536;2022-08-01T10:07:18;19.80;99.90
52034;DHT22;38045;52.988;6.536;2022-08-01T10:09:44;19.90;99.90
52034;DHT22;38045;52.988;6.536;2022-08-01T10:12:13;20.00;99.90
52034;DHT22;38045;52.988;6.536;2022-08-01T10:14:39;20.20;99.90
52034;DHT22;38045;52.988;6.536;2022-08-01T10:17:08;20.40;99.90
52034;DHT22;38045;52.988;6.536;2022-08-01T10:19:36;20.40;99.90
52034;DHT22;38045;52.988;6.536;2022-08-01T10:22:06;20.10;99.90
52034;DHT22;38045;52.988;6.536;2022-08-01T10:24:37;20.00;99.90
52034;DHT22;38045;52.988;6.536;2022-08-01T10:27:08;20.20;99.90
52034;DHT22;38045;52.988;6.536;2022-08-01T10:32:05;20.30;99.90
52034;DHT22;38045;52.988;6.536;2022-08-01T10:34:32;20.30;99.90
52034;DHT22;38045;52.988;6.536;2022-08-01T10:36:59;20.30;99.90
52034;DHT22;38045;52.988;6.536;2022-08-01T10:39:25;20.20;99.90
52034;DHT22;38045;52.988;6.536;2022-08-01T10:41:54;20.30;99.90
52034;DHT22;38045;52.988;6.536;2022-08-01T10:44:21;20.30;99.90
52034;DHT22;38045;52.988;6.536;2022-08-01T10:46:51;20.50;99.90
52034;DHT22;38045;52.988;6.536;2022-08-01T10:49:17;20.50;99.90
52034;DHT22;38045;52.988;6.536;2022-08-01T10:51:45;20.50;99.90
52034;DHT22;38045;52.988;6.536;2022-08-01T10:54:12;20.60;99.90
52034;DHT22;38045;52.988;6.536;2022-08-01T10:56:40;20.50;99.90
52034;DHT22;38045;52.988;6.536;2022-08-01T10:59:07;20.60;99.90
52034;DHT22;38045;52.988;6.536;2022-08-01T11:01:33;20.60;99.90
52034;DHT22;38045;52.988;6.536;2022-08-01T11:04:06;20.70;99.90
52034;DHT22;38045;52.988;6.536;2022-08-01T11:08:59;20.60;99.90
52034;DHT22;38045;52.988;6.536;2022-08-01T11:11:26;20.70;99.90
52034;DHT22;38045;52.988;6.536;2022-08-01T11:16:28;20.80;99.90
52034;DHT22;38045;52.988;6.536;2022-08-01T11:18:54;20.80;99.90
52034;DHT22;38045;52.988;6.536;2022-08-01T11:21:20;20.60;99.90
52034;DHT22;38045;52.988;6.536;2022-08-01T11:23:50;20.60;99.90
52034;DHT22;38045;52.988;6.536;2022-08-01T11:26:19;20.50;99.90
52034;DHT22;38045;52.988;6.536;2022-08-01T11:29:09;20.50;99.90
52034;DHT22;38045;52.988;6.536;2022-08-01T11:31:32;20.70;99.90
52034;DHT22;38045;52.988;6.536;2022-08-01T11:33:59;20.80;99.90
52034;DHT22;38045;52.988;6.536;2022-08-01T11:36:25;21.00;99.90
52034;DHT22;38045;52.988;6.536;2022-08-01T11:41:27;20.90;99.90
52034;DHT22;38045;52.988;6.536;2022-08-01T11:49:32;20.70;99.90
52034;DHT22;38045;52.988;6.536;2022-08-01T11:52:07;20.70;99.90
52034;DHT22;38045;52.988;6.536;2022-08-01T11:54:36;20.80;99.90
52034;DHT22;38045;52.988;6.536;2022-08-01T11:57:07;20.90;99.90
52034;DHT22;38045;52.988;6.536;2022-08-01T11:59:54;21.00;99.90
52034;DHT22;38045;52.988;6.536;2022-08-01T12:02:26;21.30;99.90
52034;DHT22;38045;52.988;6.536;2022-08-01T12:07:29;20.90;99.90
52034;DHT22;38045;52.988;6.536;2022-08-01T12:12:28;20.90;99.90
52034;DHT22;38045;52.988;6.536;2022-08-01T12:14:59;21.10;99.90
52034;DHT22;38045;52.988;6.536;2022-08-01T12:19:54;21.40;99.90
52034;DHT22;38045;52.988;6.536;2022-08-01T12:22:23;21.60;99.90
52034;DHT22;38045;52.988;6.536;2022-08-01T12:24:49;21.70;99.90
52034;DHT22;38045;52.988;6.536;2022-08-01T12:27:30;21.50;99.90
52034;DHT22;38045;52.988;6.536;2022-08-01T12:29:59;21.30;99.90
52034;DHT22;38045;52.988;6.536;2022-08-01T12:32:33;21.40;99.90
52034;DHT22;38045;52.988;6.536;2022-08-01T12:35:07;21.60;99.90
52034;DHT22;38045;52.988;6.536;2022-08-01T12:37:40;21.70;99.90
52034;DHT22;38045;52.988;6.536;2022-08-01T12:42:42;21.90;99.90
52034;DHT22;38045;52.988;6.536;2022-08-01T12:45:09;21.60;99.90
52034;DHT22;38045;52.988;6.536;2022-08-01T12:47:39;21.20;99.90
52034;DHT22;38045;52.988;6.536;2022-08-01T12:50:13;20.90;99.90
52034;DHT22;38045;52.988;6.536;2022-08-01T12:52:39;21.00;99.90
52034;DHT22;38045;52.988;6.536;2022-08-01T12:55:12;21.20;99.90
52034;DHT22;38045;52.988;6.536;2022-08-01T12:57:41;21.20;99.90
52034;DHT22;38045;52.988;6.536;2022-08-01T13:00:15;21.30;99.90
52034;DHT22;38045;52.988;6.536;2022-08-01T13:02:43;21.40;99.90
52034;DHT22;38045;52.988;6.536;2022-08-01T13:05:10;21.40;99.90
52034;DHT22;38045;52.988;6.536;2022-08-01T13:07:38;21.30;99.90
52034;DHT22;38045;52.988;6.536;2022-08-01T13:10:05;21.30;99.90
52034;DHT22;38045;52.988;6.536;2022-08-01T13:12:31;21.30;99.90
52034;DHT22;38045;52.988;6.536;2022-08-01T13:14:57;21.30;99.90
52034;DHT22;38045;52.988;6.536;2022-08-01T13:17:35;21.30;99.90
52034;DHT22;38045;52.988;6.536;2022-08-01T13:20:03;21.20;99.90
52034;DHT22;38045;52.988;6.536;2022-08-01T13:22:33;21.20;99.90
52034;DHT22;38045;52.988;6.536;2022-08-01T13:25:15;21.10;99.90
52034;DHT22;38045;52.988;6.536;2022-08-01T13:27:41;21.10;99.90
52034;DHT22;38045;52.988;6.536;2022-08-01T13:30:18;21.30;99.90
52034;DHT22;38045;52.988;6.536;2022-08-01T13:33:00;21.50;99.90
52034;DHT22;38045;52.988;6.536;2022-08-01T13:35:28;21.60;99.90
52034;DHT22;38045;52.988;6.536;2022-08-01T13:37:53;21.60;99.90
52034;DHT22;38045;52.988;6.536;2022-08-01T13:40:26;21.50;99.90
52034;DHT22;38045;52.988;6.536;2022-08-01T13:42:53;21.50;99.90
52034;DHT22;38045;52.988;6.536;2022-08-01T13:45:21;21.30;99.90
52034;DHT22;38045;52.988;6.536;2022-08-01T13:47:46;21.30;99.90
52034;DHT22;38045;52.988;6.536;2022-08-01T13:50:12;21.30;99.90
52034;DHT22;38045;52.988;6.536;2022-08-01T13:52:37;21.30;99.90
52034;DHT22;38045;52.988;6.536;2022-08-01T13:55:03;21.20;99.90
52034;DHT22;38045;52.988;6.536;2022-08-01T13:57:29;21.30;99.90
52034;DHT22;38045;52.988;6.536;2022-08-01T13:59:54;21.40;99.90
52034;DHT22;38045;52.988;6.536;2022-08-01T14:02:20;21.40;99.90
52034;DHT22;38045;52.988;6.536;2022-08-01T14:04:46;21.40;99.90
52034;DHT22;38045;52.988;6.536;2022-08-01T14:07:12;21.30;99.90
52034;DHT22;38045;52.988;6.536;2022-08-01T14:09:38;21.30;99.90
52034;DHT22;38045;52.988;6.536;2022-08-01T14:12:04;21.20;99.90
52034;DHT22;38045;52.988;6.536;2022-08-01T14:14:30;21.10;99.90
52034;DHT22;38045;52.988;6.536;2022-08-01T14:16:56;21.10;99.90
52034;DHT22;38045;52.988;6.536;2022-08-01T14:19:22;21.00;99.90
52034;DHT22;38045;52.988;6.536;2022-08-01T14:21:47;21.00;99.90
52034;DHT22;38045;52.988;6.536;2022-08-01T14:24:13;21.10;99.90
52034;DHT22;38045;52.988;6.536;2022-08-01T14:26:38;21.10;99.90
52034;DHT22;38045;52.988;6.536;2022-08-01T14:29:04;21.00;99.90
52034;DHT22;38045;52.988;6.536;2022-08-01T14:31:29;21.10;99.90
52034;DHT22;38045;52.988;6.536;2022-08-01T14:33:55;21.10;99.90
52034;DHT22;38045;52.988;6.536;2022-08-01T14:36:21;21.30;99.90
52034;DHT22;38045;52.988;6.536;2022-08-01T14:38:47;21.40;99.90
52034;DHT22;38045;52.988;6.536;2022-08-01T14:41:14;21.50;99.90
52034;DHT22;38045;52.988;6.536;2022-08-01T14:43:40;21.40;99.90
52034;DHT22;38045;52.988;6.536;2022-08-01T14:46:05;21.40;99.90
52034;DHT22;38045;52.988;6.536;2022-08-01T14:48:33;21.30;99.90
52034;DHT22;38045;52.988;6.536;2022-08-01T14:50:59;21.30;99.90
52034;DHT22;38045;52.988;6.536;2022-08-01T14:53:27;21.30;99.90
52034;DHT22;38045;52.988;6.536;2022-08-01T14:55:53;21.30;99.90
52034;DHT22;38045;52.988;6.536;2022-08-01T14:58:19;21.40;99.90
52034;DHT22;38045;52.988;6.536;2022-08-01T15:00:44;21.40;99.90
52034;DHT22;38045;52.988;6.536;2022-08-01T15:03:10;21.30;99.90
52034;DHT22;38045;52.988;6.536;2022-08-01T15:05:36;21.30;99.90
52034;DHT22;38045;52.988;6.536;2022-08-01T15:08:02;21.20;99.90
52034;DHT22;38045;52.988;6.536;2022-08-01T15:10:28;21.20;99.90
52034;DHT22;38045;52.988;6.536;2022-08-01T15:12:54;21.10;99.90
52034;DHT22;38045;52.988;6.536;2022-08-01T15:15:19;21.10;99.90
52034;DHT22;38045;52.988;6.536;2022-08-01T15:17:45;21.10;99.90
52034;DHT22;38045;52.988;6.536;2022-08-01T15:20:11;21.00;99.90
52034;DHT22;38045;52.988;6.536;2022-08-01T15:22:39;20.90;99.90
52034;DHT22;38045;52.988;6.536;2022-08-01T15:25:05;20.90;99.90
52034;DHT22;38045;52.988;6.536;2022-08-01T15:27:33;20.60;99.90
52034;DHT22;38045;52.988;6.536;2022-08-01T15:30:05;20.70;99.90
52034;DHT22;38045;52.988;6.536;2022-08-01T15:32:31;20.60;99.90
52034;DHT22;38045;52.988;6.536;2022-08-01T15:34:56;20.50;99.90
52034;DHT22;38045;52.988;6.536;2022-08-01T15:37:22;20.50;99.90
52034;DHT22;38045;52.988;6.536;2022-08-01T15:39:48;20.50;99.90
52034;DHT22;38045;52.988;6.536;2022-08-01T15:42:16;20.70;99.90
52034;DHT22;38045;52.988;6.536;2022-08-01T15:44:42;20.80;99.90
52034;DHT22;38045;52.988;6.536;2022-08-01T15:47:08;20.70;99.90
52034;DHT22;38045;52.988;6.536;2022-08-01T15:49:35;20.80;99.90
52034;DHT22;38045;52.988;6.536;2022-08-01T15:52:06;21.00;99.90
52034;DHT22;38045;52.988;6.536;2022-08-01T15:54:32;21.00;99.90
52034;DHT22;38045;52.988;6.536;2022-08-01T15:56:58;21.00;99.90
52034;DHT22;38045;52.988;6.536;2022-08-01T15:59:23;20.90;99.90
52034;DHT22;38045;52.988;6.536;2022-08-01T16:01:49;20.90;99.90
52034;DHT22;38045;52.988;6.536;2022-08-01T16:04:15;20.80;99.90